Main page
METAR-TAF:

METAR-TAF

Airports :

Cannes – Mandelieu Airport

Cannes, France

latitude: 43-33N, longitude: 006-57E, elevation: 3 m

Current weather observation

The report was made 30 minutes ago, at 15:30 UTC
Wind 6 kt from the South/Southeast, varying between East/Southeast and South
Temperature 18°C
Humidity 30%
Pressure 1019 hPa
Visibility 10 km or more
no clouds below 1500 m and no cumulonimbus

METAR: LFMD 041530Z AUTO 16006KT 120V190 CAVOK 18/00 Q1019

Time: 18:00 (16:00 UTC)


TAF: missing

Weather observations and forecasts of more than 4000 airports (METAR and TAF reports).

The available stations are represented by yellow and red dots on the map.

Hover mouse over dot to see the name of the station.

Then click to see weather observations and forecasts.

To change the map : click on the green buttons with a black cross to zoom in, on the green button with a dash to zoom out, or on the green arrows for adjacent maps.


METAR-TAF: